Time;durP1;ratioP1;P1;durP2;ratioP2;P2;SDS_P1;SDS_P2;PMS_P1;PMS_P2;Temp;Humidity;BMP_temperature;BMP_pressure;BME280_temperature;BME280_humidity;BME280_pressure;Samples;Min_cycle;Max_cycle;Signal;HPM_P1;HPM_P2
2024/03/22 00:00:11;;;;;;;12.7;8.4;;;;;;;;;;;;;
2024/03/22 00:02:36;;;;;;;11;7.8;;;;;;;;;;;;;
2024/03/22 00:05:02;;;;;;;10.6;7.7;;;;;;;;;;;;;
2024/03/22 00:07:27;;;;;;;12.1;8.2;;;;;;;;;;;;;
2024/03/22 00:09:52;;;;;;;11;7.8;;;;;;;;;;;;;
2024/03/22 00:12:17;;;;;;;11.7;7.7;;;;;;;;;;;;;
2024/03/22 00:14:42;;;;;;;9.9;7.3;;;;;;;;;;;;;
2024/03/22 00:17:07;;;;;;;9.4;7.1;;;;;;;;;;;;;
2024/03/22 00:19:32;;;;;;;9.8;7.1;;;;;;;;;;;;;
2024/03/22 00:21:58;;;;;;;9.9;7.2;;;;;;;;;;;;;
2024/03/22 00:24:23;;;;;;;10;7.1;;;;;;;;;;;;;
2024/03/22 00:26:48;;;;;;;10.5;6.8;;;;;;;;;;;;;
2024/03/22 00:29:13;;;;;;;9;7;;;;;;;;;;;;;
2024/03/22 00:31:38;;;;;;;10.8;7;;;;;;;;;;;;;
2024/03/22 00:34:03;;;;;;;10.1;6.8;;;;;;;;;;;;;
2024/03/22 00:36:28;;;;;;;9;6.7;;;;;;;;;;;;;
2024/03/22 00:38:53;;;;;;;9.5;6.6;;;;;;;;;;;;;
2024/03/22 00:41:18;;;;;;;10.6;7;;;;;;;;;;;;;
2024/03/22 00:43:43;;;;;;;9.7;6.9;;;;;;;;;;;;;
2024/03/22 00:46:08;;;;;;;11.1;7.3;;;;;;;;;;;;;
2024/03/22 00:48:35;;;;;;;8.8;6.6;;;;;;;;;;;;;
2024/03/22 00:50:59;;;;;;;9.2;6.8;;;;;;;;;;;;;
2024/03/22 00:53:24;;;;;;;8.7;6.6;;;;;;;;;;;;;
2024/03/22 00:55:51;;;;;;;10.6;6.8;;;;;;;;;;;;;
2024/03/22 00:58:14;;;;;;;11.2;7.3;;;;;;;;;;;;;
2024/03/22 01:00:40;;;;;;;11;7.6;;;;;;;;;;;;;
2024/03/22 01:03:05;;;;;;;9.5;7.3;;;;;;;;;;;;;
2024/03/22 01:05:29;;;;;;;9.5;6.4;;;;;;;;;;;;;
2024/03/22 01:07:55;;;;;;;9.9;6.7;;;;;;;;;;;;;
2024/03/22 01:10:20;;;;;;;8.9;6.8;;;;;;;;;;;;;
2024/03/22 01:12:45;;;;;;;8.5;6.5;;;;;;;;;;;;;
2024/03/22 01:15:10;;;;;;;8.3;6.3;;;;;;;;;;;;;
2024/03/22 01:17:35;;;;;;;6.9;5.6;;;;;;;;;;;;;
2024/03/22 01:20:00;;;;;;;9.5;6.8;;;;;;;;;;;;;
2024/03/22 01:22:25;;;;;;;9.2;6;;;;;;;;;;;;;
2024/03/22 01:24:50;;;;;;;8.8;6.4;;;;;;;;;;;;;
2024/03/22 01:27:15;;;;;;;8.3;6;;;;;;;;;;;;;
2024/03/22 01:29:41;;;;;;;7.4;5.8;;;;;;;;;;;;;
2024/03/22 01:32:06;;;;;;;7.3;5.6;;;;;;;;;;;;;
2024/03/22 01:34:31;;;;;;;7.8;5.4;;;;;;;;;;;;;
2024/03/22 01:36:56;;;;;;;7.7;5.9;;;;;;;;;;;;;
2024/03/22 01:39:21;;;;;;;7.7;6;;;;;;;;;;;;;
2024/03/22 01:41:46;;;;;;;8.2;5.8;;;;;;;;;;;;;
2024/03/22 01:44:13;;;;;;;9.2;5.5;;;;;;;;;;;;;
2024/03/22 01:46:36;;;;;;;7.8;5.6;;;;;;;;;;;;;
2024/03/22 01:49:01;;;;;;;7.8;5.5;;;;;;;;;;;;;
2024/03/22 01:51:27;;;;;;;9.4;5.9;;;;;;;;;;;;;
2024/03/22 01:53:52;;;;;;;7.5;6.2;;;;;;;;;;;;;
2024/03/22 01:56:17;;;;;;;8.9;6.4;;;;;;;;;;;;;
2024/03/22 01:58:42;;;;;;;9.1;6.5;;;;;;;;;;;;;
2024/03/22 02:01:07;;;;;;;9.4;6.9;;;;;;;;;;;;;
2024/03/22 02:03:32;;;;;;;10.1;6.9;;;;;;;;;;;;;
2024/03/22 02:05:58;;;;;;;9.1;6.4;;;;;;;;;;;;;
2024/03/22 02:08:23;;;;;;;9;7.1;;;;;;;;;;;;;
2024/03/22 02:10:48;;;;;;;9;6.5;;;;;;;;;;;;;
2024/03/22 02:13:13;;;;;;;8.1;6.2;;;;;;;;;;;;;
2024/03/22 02:15:38;;;;;;;7.5;6.3;;;;;;;;;;;;;
2024/03/22 02:18:03;;;;;;;8.7;6.2;;;;;;;;;;;;;
2024/03/22 02:20:28;;;;;;;9.4;6.3;;;;;;;;;;;;;
2024/03/22 02:22:54;;;;;;;8.8;6.3;;;;;;;;;;;;;
2024/03/22 02:25:19;;;;;;;8;6.5;;;;;;;;;;;;;
2024/03/22 02:27:44;;;;;;;10.1;6.5;;;;;;;;;;;;;
2024/03/22 02:30:09;;;;;;;7.3;5.7;;;;;;;;;;;;;
2024/03/22 02:32:34;;;;;;;8.2;5.8;;;;;;;;;;;;;
2024/03/22 02:34:59;;;;;;;8.7;6.5;;;;;;;;;;;;;
2024/03/22 02:37:24;;;;;;;9.5;6.5;;;;;;;;;;;;;
2024/03/22 02:39:50;;;;;;;8.7;6.3;;;;;;;;;;;;;
2024/03/22 02:42:15;;;;;;;8.9;5.8;;;;;;;;;;;;;
2024/03/22 02:44:42;;;;;;;7.7;5.6;;;;;;;;;;;;;
2024/03/22 02:47:05;;;;;;;6.9;5.5;;;;;;;;;;;;;
2024/03/22 02:49:30;;;;;;;8.5;6.3;;;;;;;;;;;;;
2024/03/22 02:51:55;;;;;;;8.8;5.6;;;;;;;;;;;;;
2024/03/22 02:54:20;;;;;;;8.3;6.2;;;;;;;;;;;;;
2024/03/22 02:56:45;;;;;;;9;7.2;;;;;;;;;;;;;
2024/03/22 02:59:10;;;;;;;9.9;7.3;;;;;;;;;;;;;
2024/03/22 03:01:35;;;;;;;13.4;7.1;;;;;;;;;;;;;
2024/03/22 03:04:00;;;;;;;9.2;6.3;;;;;;;;;;;;;
2024/03/22 03:06:26;;;;;;;8.4;6.6;;;;;;;;;;;;;
2024/03/22 03:08:51;;;;;;;9.5;6.4;;;;;;;;;;;;;
2024/03/22 03:11:16;;;;;;;8.9;6.4;;;;;;;;;;;;;
2024/03/22 03:13:41;;;;;;;7.8;5.9;;;;;;;;;;;;;
2024/03/22 03:16:06;;;;;;;8.4;6.1;;;;;;;;;;;;;
2024/03/22 03:18:32;;;;;;;9.5;6.2;;;;;;;;;;;;;
2024/03/22 03:20:57;;;;;;;8.8;5.9;;;;;;;;;;;;;
2024/03/22 03:23:22;;;;;;;9.4;6.3;;;;;;;;;;;;;
2024/03/22 03:25:47;;;;;;;7.7;5.9;;;;;;;;;;;;;
2024/03/22 03:28:13;;;;;;;10.4;6.7;;;;;;;;;;;;;
2024/03/22 03:30:37;;;;;;;8.7;6.1;;;;;;;;;;;;;
2024/03/22 03:33:02;;;;;;;8.4;6;;;;;;;;;;;;;
2024/03/22 03:35:29;;;;;;;10.2;6.6;;;;;;;;;;;;;
2024/03/22 03:37:52;;;;;;;9;6.1;;;;;;;;;;;;;
2024/03/22 03:40:17;;;;;;;9.4;6.4;;;;;;;;;;;;;
2024/03/22 03:42:42;;;;;;;8.3;6.5;;;;;;;;;;;;;
2024/03/22 03:45:08;;;;;;;8.1;6.1;;;;;;;;;;;;;
2024/03/22 03:47:33;;;;;;;9.4;6.4;;;;;;;;;;;;;
2024/03/22 03:49:58;;;;;;;9.5;6.8;;;;;;;;;;;;;
2024/03/22 03:52:23;;;;;;;9;6.1;;;;;;;;;;;;;
2024/03/22 03:54:48;;;;;;;8.8;6.4;;;;;;;;;;;;;
2024/03/22 03:57:13;;;;;;;22.3;17.9;;;;;;;;;;;;;
2024/03/22 03:59:38;;;;;;;8.3;6;;;;;;;;;;;;;
2024/03/22 04:02:28;;;;;;;8.5;6;;;;;;;;;;;;;
2024/03/22 04:04:54;;;;;;;9.4;6.4;;;;;;;;;;;;;
2024/03/22 04:07:19;;;;;;;8;6.3;;;;;;;;;;;;;
2024/03/22 04:09:44;;;;;;;8.2;6.2;;;;;;;;;;;;;
2024/03/22 04:12:09;;;;;;;8.6;6.4;;;;;;;;;;;;;
2024/03/22 04:14:34;;;;;;;8.7;6;;;;;;;;;;;;;
2024/03/22 04:17:00;;;;;;;11.1;7.1;;;;;;;;;;;;;
2024/03/22 04:19:24;;;;;;;10.4;6.7;;;;;;;;;;;;;
2024/03/22 04:21:49;;;;;;;14.1;7.9;;;;;;;;;;;;;
2024/03/22 04:24:15;;;;;;;10.9;6.7;;;;;;;;;;;;;
2024/03/22 04:26:40;;;;;;;11.4;7.2;;;;;;;;;;;;;
2024/03/22 04:29:05;;;;;;;11.8;7.5;;;;;;;;;;;;;
2024/03/22 04:31:30;;;;;;;11.1;7.9;;;;;;;;;;;;;
2024/03/22 04:33:55;;;;;;;13;8.3;;;;;;;;;;;;;
2024/03/22 04:36:20;;;;;;;13.1;8.5;;;;;;;;;;;;;
2024/03/22 04:38:45;;;;;;;12.5;7.8;;;;;;;;;;;;;
2024/03/22 04:41:11;;;;;;;10.4;7.3;;;;;;;;;;;;;
2024/03/22 04:43:36;;;;;;;9.8;7.2;;;;;;;;;;;;;
2024/03/22 04:46:01;;;;;;;8.3;6.2;;;;;;;;;;;;;
2024/03/22 04:48:26;;;;;;;9;6.5;;;;;;;;;;;;;
2024/03/22 04:50:51;;;;;;;8.6;6.4;;;;;;;;;;;;;
2024/03/22 04:53:16;;;;;;;10.3;6.3;;;;;;;;;;;;;
2024/03/22 04:55:44;;;;;;;9.2;6.4;;;;;;;;;;;;;
2024/03/22 04:58:06;;;;;;;7.8;6;;;;;;;;;;;;;
2024/03/22 05:00:32;;;;;;;7.5;6.2;;;;;;;;;;;;;
2024/03/22 05:02:57;;;;;;;8.2;6.1;;;;;;;;;;;;;
2024/03/22 05:05:22;;;;;;;7.4;5.4;;;;;;;;;;;;;
2024/03/22 05:07:47;;;;;;;7.9;5.9;;;;;;;;;;;;;
2024/03/22 05:10:12;;;;;;;7.3;5.5;;;;;;;;;;;;;
2024/03/22 05:12:37;;;;;;;17.8;11;;;;;;;;;;;;;
2024/03/22 05:15:02;;;;;;;8.5;5.7;;;;;;;;;;;;;
2024/03/22 05:17:29;;;;;;;21.3;17.7;;;;;;;;;;;;;
2024/03/22 05:19:53;;;;;;;9.8;7;;;;;;;;;;;;;
2024/03/22 05:22:20;;;;;;;10;6.8;;;;;;;;;;;;;
2024/03/22 05:24:43;;;;;;;7.3;6.5;;;;;;;;;;;;;
2024/03/22 05:27:08;;;;;;;7.9;5.7;;;;;;;;;;;;;
2024/03/22 05:29:33;;;;;;;8.7;6;;;;;;;;;;;;;
2024/03/22 05:32:00;;;;;;;6.2;5.1;;;;;;;;;;;;;
2024/03/22 05:34:24;;;;;;;7.9;6.3;;;;;;;;;;;;;
2024/03/22 05:36:49;;;;;;;9;6.6;;;;;;;;;;;;;
2024/03/22 05:39:14;;;;;;;8.8;6.5;;;;;;;;;;;;;
2024/03/22 05:41:39;;;;;;;7.3;5.7;;;;;;;;;;;;;
2024/03/22 05:44:04;;;;;;;8.5;6.2;;;;;;;;;;;;;
2024/03/22 05:46:29;;;;;;;8.3;6.2;;;;;;;;;;;;;
2024/03/22 05:48:54;;;;;;;8.7;6.2;;;;;;;;;;;;;
2024/03/22 05:51:19;;;;;;;7.2;5;;;;;;;;;;;;;
2024/03/22 05:53:44;;;;;;;6.4;5.1;;;;;;;;;;;;;
2024/03/22 05:56:09;;;;;;;6.8;5.3;;;;;;;;;;;;;
2024/03/22 05:58:36;;;;;;;9.7;7.3;;;;;;;;;;;;;
2024/03/22 06:01:00;;;;;;;6.5;5;;;;;;;;;;;;;
2024/03/22 06:03:25;;;;;;;4.5;3.7;;;;;;;;;;;;;
2024/03/22 06:05:54;;;;;;;4.4;3.4;;;;;;;;;;;;;
2024/03/22 06:08:18;;;;;;;5;4;;;;;;;;;;;;;
2024/03/22 06:10:40;;;;;;;4.6;3.2;;;;;;;;;;;;;
2024/03/22 06:13:05;;;;;;;4;3.3;;;;;;;;;;;;;
2024/03/22 06:15:30;;;;;;;4.5;3.5;;;;;;;;;;;;;
2024/03/22 06:17:55;;;;;;;6.3;3.8;;;;;;;;;;;;;
2024/03/22 06:20:21;;;;;;;4.9;3.8;;;;;;;;;;;;;
2024/03/22 06:22:46;;;;;;;6.8;4.8;;;;;;;;;;;;;
2024/03/22 06:25:11;;;;;;;5.3;4.1;;;;;;;;;;;;;
2024/03/22 06:27:36;;;;;;;6.1;4.9;;;;;;;;;;;;;
2024/03/22 06:30:01;;;;;;;5;4.3;;;;;;;;;;;;;
2024/03/22 06:32:26;;;;;;;6.1;4.6;;;;;;;;;;;;;
2024/03/22 06:34:52;;;;;;;4.4;4;;;;;;;;;;;;;
2024/03/22 06:37:16;;;;;;;7.3;4.1;;;;;;;;;;;;;
2024/03/22 06:39:42;;;;;;;5.4;4.2;;;;;;;;;;;;;
2024/03/22 06:42:07;;;;;;;5.1;4.2;;;;;;;;;;;;;
2024/03/22 06:44:32;;;;;;;4.9;3.9;;;;;;;;;;;;;
2024/03/22 06:46:57;;;;;;;5.2;3.3;;;;;;;;;;;;;
2024/03/22 06:49:22;;;;;;;3.5;3.1;;;;;;;;;;;;;
2024/03/22 06:51:47;;;;;;;4;3.2;;;;;;;;;;;;;
2024/03/22 06:54:12;;;;;;;4.3;3;;;;;;;;;;;;;
2024/03/22 06:56:38;;;;;;;3.3;2.8;;;;;;;;;;;;;
2024/03/22 06:59:03;;;;;;;4.2;2.8;;;;;;;;;;;;;
2024/03/22 07:01:28;;;;;;;4.2;3.2;;;;;;;;;;;;;
2024/03/22 07:03:53;;;;;;;3.2;2.9;;;;;;;;;;;;;
2024/03/22 07:06:18;;;;;;;3.9;3.1;;;;;;;;;;;;;
2024/03/22 07:08:43;;;;;;;3.6;2.8;;;;;;;;;;;;;
2024/03/22 07:11:08;;;;;;;3.6;2.8;;;;;;;;;;;;;
2024/03/22 07:13:34;;;;;;;3.8;2.7;;;;;;;;;;;;;
2024/03/22 07:15:59;;;;;;;2.6;2.2;;;;;;;;;;;;;
2024/03/22 07:18:24;;;;;;;2.2;2;;;;;;;;;;;;;
2024/03/22 07:20:49;;;;;;;3.1;2.4;;;;;;;;;;;;;
2024/03/22 07:23:14;;;;;;;2.9;2.3;;;;;;;;;;;;;
2024/03/22 07:25:42;;;;;;;3.9;2.4;;;;;;;;;;;;;
2024/03/22 07:28:04;;;;;;;3.1;2.2;;;;;;;;;;;;;
2024/03/22 07:30:29;;;;;;;2;1.8;;;;;;;;;;;;;
2024/03/22 07:32:55;;;;;;;2.8;2.1;;;;;;;;;;;;;
2024/03/22 07:35:20;;;;;;;2.3;1.9;;;;;;;;;;;;;
2024/03/22 07:37:45;;;;;;;2.9;1.7;;;;;;;;;;;;;
2024/03/22 07:40:10;;;;;;;2.5;1.9;;;;;;;;;;;;;
2024/03/22 07:42:35;;;;;;;3.7;2.2;;;;;;;;;;;;;
2024/03/22 07:45:00;;;;;;;2.5;2;;;;;;;;;;;;;
2024/03/22 07:47:25;;;;;;;3.3;1.7;;;;;;;;;;;;;
2024/03/22 07:49:50;;;;;;;4;1.7;;;;;;;;;;;;;
2024/03/22 07:52:15;;;;;;;1.5;1.4;;;;;;;;;;;;;
2024/03/22 07:54:41;;;;;;;1.7;1.6;;;;;;;;;;;;;
2024/03/22 07:57:06;;;;;;;2.1;1.6;;;;;;;;;;;;;
2024/03/22 07:59:31;;;;;;;3.5;1.8;;;;;;;;;;;;;
2024/03/22 08:01:57;;;;;;;2.1;1.8;;;;;;;;;;;;;
2024/03/22 08:04:21;;;;;;;2.5;1.7;;;;;;;;;;;;;
2024/03/22 08:06:46;;;;;;;2.7;1.9;;;;;;;;;;;;;
2024/03/22 08:09:12;;;;;;;1.6;1.5;;;;;;;;;;;;;
2024/03/22 08:11:36;;;;;;;3.2;1.7;;;;;;;;;;;;;
2024/03/22 08:14:03;;;;;;;3.2;1.8;;;;;;;;;;;;;
2024/03/22 08:16:27;;;;;;;3.5;2.2;;;;;;;;;;;;;
2024/03/22 08:18:51;;;;;;;4.2;2.9;;;;;;;;;;;;;
2024/03/22 08:21:17;;;;;;;2.3;1.8;;;;;;;;;;;;;
2024/03/22 08:23:41;;;;;;;8.7;2.3;;;;;;;;;;;;;
2024/03/22 08:26:07;;;;;;;2.3;1.5;;;;;;;;;;;;;
2024/03/22 08:28:32;;;;;;;1.7;1.6;;;;;;;;;;;;;
2024/03/22 08:30:57;;;;;;;2.6;1.8;;;;;;;;;;;;;
2024/03/22 08:33:22;;;;;;;1.9;1.5;;;;;;;;;;;;;
2024/03/22 08:35:48;;;;;;;4;1.6;;;;;;;;;;;;;
2024/03/22 08:38:14;;;;;;;12.8;2.1;;;;;;;;;;;;;
2024/03/22 08:40:37;;;;;;;3;1.8;;;;;;;;;;;;;
2024/03/22 08:43:03;;;;;;;2.1;1.6;;;;;;;;;;;;;
2024/03/22 08:45:27;;;;;;;3.7;1.4;;;;;;;;;;;;;
2024/03/22 08:47:53;;;;;;;2.1;1.4;;;;;;;;;;;;;
2024/03/22 08:50:18;;;;;;;1.8;1.3;;;;;;;;;;;;;
2024/03/22 08:52:43;;;;;;;2.2;1.4;;;;;;;;;;;;;
2024/03/22 08:55:08;;;;;;;4.1;1.3;;;;;;;;;;;;;
2024/03/22 08:57:33;;;;;;;3.4;1.3;;;;;;;;;;;;;
2024/03/22 08:59:59;;;;;;;4.9;2.1;;;;;;;;;;;;;
2024/03/22 09:02:23;;;;;;;1.8;1.2;;;;;;;;;;;;;
2024/03/22 09:04:49;;;;;;;1.4;1.3;;;;;;;;;;;;;
2024/03/22 09:07:14;;;;;;;1.3;1.2;;;;;;;;;;;;;
2024/03/22 09:09:39;;;;;;;1.9;1.4;;;;;;;;;;;;;
2024/03/22 09:12:04;;;;;;;1.7;1.1;;;;;;;;;;;;;
2024/03/22 09:14:29;;;;;;;3.2;1.6;;;;;;;;;;;;;
2024/03/22 09:16:55;;;;;;;3.1;1.8;;;;;;;;;;;;;
2024/03/22 09:19:20;;;;;;;1.4;1.2;;;;;;;;;;;;;
2024/03/22 09:21:45;;;;;;;1.8;1.3;;;;;;;;;;;;;
2024/03/22 09:24:10;;;;;;;2;1.3;;;;;;;;;;;;;
2024/03/22 09:26:35;;;;;;;2.5;1.3;;;;;;;;;;;;;
2024/03/22 09:29:01;;;;;;;1.6;1.4;;;;;;;;;;;;;
2024/03/22 09:31:25;;;;;;;3.2;1.3;;;;;;;;;;;;;
2024/03/22 09:33:50;;;;;;;3.5;1.4;;;;;;;;;;;;;
2024/03/22 09:36:16;;;;;;;2.9;1.3;;;;;;;;;;;;;
2024/03/22 09:38:41;;;;;;;2.2;1.4;;;;;;;;;;;;;
2024/03/22 09:41:06;;;;;;;1.6;1.2;;;;;;;;;;;;;
2024/03/22 09:43:32;;;;;;;1.6;1.4;;;;;;;;;;;;;
2024/03/22 09:45:56;;;;;;;2.8;1.4;;;;;;;;;;;;;
2024/03/22 09:48:21;;;;;;;1.7;1.3;;;;;;;;;;;;;
2024/03/22 09:50:47;;;;;;;1.6;1.2;;;;;;;;;;;;;
2024/03/22 09:53:12;;;;;;;2.1;1;;;;;;;;;;;;;
2024/03/22 09:55:37;;;;;;;1.8;1.4;;;;;;;;;;;;;
2024/03/22 09:58:02;;;;;;;3;1.2;;;;;;;;;;;;;
2024/03/22 10:00:27;;;;;;;1.3;1.1;;;;;;;;;;;;;
2024/03/22 10:02:53;;;;;;;2.8;1.5;;;;;;;;;;;;;
2024/03/22 10:05:18;;;;;;;3.8;1.4;;;;;;;;;;;;;
2024/03/22 10:07:43;;;;;;;1.8;1.2;;;;;;;;;;;;;
2024/03/22 10:10:08;;;;;;;2.2;1.3;;;;;;;;;;;;;
2024/03/22 10:12:33;;;;;;;1.8;1.2;;;;;;;;;;;;;
2024/03/22 10:14:58;;;;;;;1.4;0.9;;;;;;;;;;;;;
2024/03/22 10:17:23;;;;;;;1.7;1.3;;;;;;;;;;;;;
2024/03/22 10:19:50;;;;;;;1.3;1.2;;;;;;;;;;;;;
2024/03/22 10:22:14;;;;;;;2.1;1.3;;;;;;;;;;;;;
2024/03/22 10:24:39;;;;;;;4.7;1.1;;;;;;;;;;;;;
2024/03/22 10:27:04;;;;;;;2.4;1.1;;;;;;;;;;;;;
2024/03/22 10:29:29;;;;;;;1.2;1.1;;;;;;;;;;;;;
2024/03/22 10:31:54;;;;;;;2.4;1;;;;;;;;;;;;;
2024/03/22 10:34:19;;;;;;;1.7;1;;;;;;;;;;;;;
2024/03/22 10:36:45;;;;;;;0.8;0.8;;;;;;;;;;;;;
2024/03/22 10:39:11;;;;;;;1.9;0.8;;;;;;;;;;;;;
2024/03/22 10:41:35;;;;;;;1.7;0.8;;;;;;;;;;;;;
2024/03/22 10:44:00;;;;;;;0.8;0.7;;;;;;;;;;;;;
2024/03/22 10:46:25;;;;;;;1.7;0.8;;;;;;;;;;;;;
2024/03/22 10:48:50;;;;;;;1.9;0.9;;;;;;;;;;;;;
2024/03/22 10:51:15;;;;;;;2.9;0.8;;;;;;;;;;;;;
2024/03/22 10:53:40;;;;;;;0.9;0.9;;;;;;;;;;;;;
2024/03/22 10:56:06;;;;;;;2.4;0.9;;;;;;;;;;;;;
2024/03/22 10:58:31;;;;;;;1.5;0.9;;;;;;;;;;;;;
2024/03/22 11:00:56;;;;;;;1.1;0.7;;;;;;;;;;;;;
2024/03/22 11:03:21;;;;;;;2.3;0.8;;;;;;;;;;;;;
2024/03/22 11:05:46;;;;;;;1.4;1;;;;;;;;;;;;;
2024/03/22 11:08:11;;;;;;;2.6;1;;;;;;;;;;;;;
2024/03/22 11:10:36;;;;;;;1.4;0.8;;;;;;;;;;;;;
2024/03/22 11:13:02;;;;;;;1.3;0.8;;;;;;;;;;;;;
2024/03/22 11:15:26;;;;;;;1.7;1.2;;;;;;;;;;;;;
2024/03/22 11:17:52;;;;;;;1.2;1.1;;;;;;;;;;;;;
2024/03/22 11:20:17;;;;;;;2.6;0.9;;;;;;;;;;;;;
2024/03/22 11:22:42;;;;;;;1.2;0.8;;;;;;;;;;;;;
2024/03/22 11:25:07;;;;;;;0.8;0.8;;;;;;;;;;;;;
2024/03/22 11:27:32;;;;;;;0.8;0.7;;;;;;;;;;;;;
2024/03/22 11:29:57;;;;;;;0.8;0.8;;;;;;;;;;;;;
2024/03/22 11:32:22;;;;;;;1;0.8;;;;;;;;;;;;;
2024/03/22 11:34:48;;;;;;;1.5;1;;;;;;;;;;;;;
2024/03/22 11:37:12;;;;;;;2.2;0.8;;;;;;;;;;;;;
2024/03/22 11:39:37;;;;;;;0.6;0.6;;;;;;;;;;;;;
2024/03/22 11:42:02;;;;;;;0.8;0.8;;;;;;;;;;;;;
2024/03/22 11:44:28;;;;;;;1.9;0.8;;;;;;;;;;;;;
2024/03/22 11:46:53;;;;;;;0.7;0.7;;;;;;;;;;;;;
2024/03/22 11:49:18;;;;;;;0.7;0.6;;;;;;;;;;;;;
2024/03/22 11:51:43;;;;;;;1.6;0.9;;;;;;;;;;;;;
2024/03/22 11:54:08;;;;;;;1.5;1;;;;;;;;;;;;;
2024/03/22 11:56:33;;;;;;;1.9;0.9;;;;;;;;;;;;;
2024/03/22 11:58:58;;;;;;;1.9;0.8;;;;;;;;;;;;;
2024/03/22 12:01:24;;;;;;;1.2;0.9;;;;;;;;;;;;;
2024/03/22 12:03:49;;;;;;;1.9;0.8;;;;;;;;;;;;;
2024/03/22 12:06:14;;;;;;;1.9;0.8;;;;;;;;;;;;;
2024/03/22 12:08:40;;;;;;;0.9;0.8;;;;;;;;;;;;;
2024/03/22 12:11:04;;;;;;;3.2;1.2;;;;;;;;;;;;;
2024/03/22 12:13:29;;;;;;;1.1;0.8;;;;;;;;;;;;;
2024/03/22 12:15:54;;;;;;;1.5;0.9;;;;;;;;;;;;;
2024/03/22 12:18:19;;;;;;;1.3;0.8;;;;;;;;;;;;;
2024/03/22 12:20:44;;;;;;;1.3;0.8;;;;;;;;;;;;;
2024/03/22 12:23:09;;;;;;;1;0.7;;;;;;;;;;;;;
2024/03/22 12:25:35;;;;;;;0.8;0.8;;;;;;;;;;;;;
2024/03/22 12:28:00;;;;;;;1.1;0.8;;;;;;;;;;;;;
2024/03/22 12:30:26;;;;;;;1.1;0.8;;;;;;;;;;;;;
2024/03/22 12:32:50;;;;;;;0.7;0.7;;;;;;;;;;;;;
2024/03/22 12:35:15;;;;;;;1.2;0.8;;;;;;;;;;;;;
2024/03/22 12:37:40;;;;;;;0.8;0.8;;;;;;;;;;;;;
2024/03/22 12:40:08;;;;;;;0.9;0.9;;;;;;;;;;;;;
2024/03/22 12:42:30;;;;;;;0.9;0.9;;;;;;;;;;;;;
2024/03/22 12:44:56;;;;;;;0.7;0.7;;;;;;;;;;;;;
2024/03/22 12:47:21;;;;;;;1.8;1;;;;;;;;;;;;;
2024/03/22 12:49:46;;;;;;;1.1;0.8;;;;;;;;;;;;;
2024/03/22 12:52:11;;;;;;;0.7;0.7;;;;;;;;;;;;;
2024/03/22 12:54:36;;;;;;;2.4;1.4;;;;;;;;;;;;;
2024/03/22 12:57:02;;;;;;;1.4;0.8;;;;;;;;;;;;;
2024/03/22 12:59:27;;;;;;;1;0.9;;;;;;;;;;;;;
2024/03/22 13:01:53;;;;;;;1.3;0.8;;;;;;;;;;;;;
2024/03/22 13:04:17;;;;;;;0.8;0.8;;;;;;;;;;;;;
2024/03/22 13:06:42;;;;;;;2.2;1;;;;;;;;;;;;;
2024/03/22 13:09:09;;;;;;;1.3;0.8;;;;;;;;;;;;;
2024/03/22 13:11:33;;;;;;;1.1;0.7;;;;;;;;;;;;;
2024/03/22 13:13:57;;;;;;;1.2;0.9;;;;;;;;;;;;;
2024/03/22 13:16:23;;;;;;;1;0.8;;;;;;;;;;;;;
2024/03/22 13:18:47;;;;;;;5.9;2.4;;;;;;;;;;;;;
2024/03/22 13:21:13;;;;;;;4.8;1.7;;;;;;;;;;;;;
2024/03/22 13:23:37;;;;;;;4.1;1.5;;;;;;;;;;;;;
2024/03/22 13:26:03;;;;;;;2.3;1;;;;;;;;;;;;;
2024/03/22 13:28:28;;;;;;;0.9;0.9;;;;;;;;;;;;;
2024/03/22 13:30:53;;;;;;;1.3;0.8;;;;;;;;;;;;;
2024/03/22 13:33:18;;;;;;;1.9;1.3;;;;;;;;;;;;;
2024/03/22 13:35:43;;;;;;;0.9;0.8;;;;;;;;;;;;;
2024/03/22 13:38:13;;;;;;;2.6;1;;;;;;;;;;;;;
2024/03/22 13:40:33;;;;;;;1;0.8;;;;;;;;;;;;;
2024/03/22 13:42:59;;;;;;;1.2;1;;;;;;;;;;;;;
2024/03/22 13:45:24;;;;;;;2.5;1.1;;;;;;;;;;;;;
2024/03/22 13:47:49;;;;;;;1.3;1;;;;;;;;;;;;;
2024/03/22 13:50:14;;;;;;;3.9;1.7;;;;;;;;;;;;;
2024/03/22 13:52:39;;;;;;;2.1;1;;;;;;;;;;;;;
2024/03/22 13:55:04;;;;;;;0.8;0.8;;;;;;;;;;;;;
2024/03/22 13:57:29;;;;;;;1.1;0.9;;;;;;;;;;;;;
2024/03/22 13:59:54;;;;;;;1.3;1;;;;;;;;;;;;;
2024/03/22 14:02:20;;;;;;;1.3;1.2;;;;;;;;;;;;;
2024/03/22 14:04:45;;;;;;;1.6;0.8;;;;;;;;;;;;;
2024/03/22 14:07:10;;;;;;;1.3;1;;;;;;;;;;;;;
2024/03/22 14:09:36;;;;;;;1.2;0.9;;;;;;;;;;;;;
2024/03/22 14:12:00;;;;;;;2.2;1.1;;;;;;;;;;;;;
2024/03/22 14:14:25;;;;;;;0.8;0.7;;;;;;;;;;;;;
2024/03/22 14:16:50;;;;;;;2;1.1;;;;;;;;;;;;;
2024/03/22 14:19:18;;;;;;;0.9;0.9;;;;;;;;;;;;;
2024/03/22 14:21:41;;;;;;;1.7;0.9;;;;;;;;;;;;;
2024/03/22 14:24:07;;;;;;;1.2;0.9;;;;;;;;;;;;;
2024/03/22 14:26:31;;;;;;;2;1.1;;;;;;;;;;;;;
2024/03/22 14:28:56;;;;;;;1.4;1.1;;;;;;;;;;;;;
2024/03/22 14:31:21;;;;;;;2.3;1;;;;;;;;;;;;;
2024/03/22 14:33:46;;;;;;;2.5;1;;;;;;;;;;;;;
2024/03/22 14:36:12;;;;;;;1.7;1.1;;;;;;;;;;;;;
2024/03/22 14:38:36;;;;;;;1.2;0.9;;;;;;;;;;;;;
2024/03/22 14:41:02;;;;;;;0.9;0.9;;;;;;;;;;;;;
2024/03/22 14:43:27;;;;;;;2.8;1.1;;;;;;;;;;;;;
2024/03/22 14:45:52;;;;;;;1.2;1.1;;;;;;;;;;;;;
2024/03/22 14:48:17;;;;;;;1.5;1.1;;;;;;;;;;;;;
2024/03/22 14:50:42;;;;;;;1.1;0.9;;;;;;;;;;;;;
2024/03/22 14:53:07;;;;;;;1.2;1.1;;;;;;;;;;;;;
2024/03/22 14:55:36;;;;;;;3.8;2.1;;;;;;;;;;;;;
2024/03/22 14:57:57;;;;;;;2.7;1.1;;;;;;;;;;;;;
2024/03/22 15:00:26;;;;;;;2.7;1.2;;;;;;;;;;;;;
2024/03/22 15:02:48;;;;;;;2.1;1.1;;;;;;;;;;;;;
2024/03/22 15:05:13;;;;;;;1.8;0.9;;;;;;;;;;;;;
2024/03/22 15:07:38;;;;;;;1.7;1.1;;;;;;;;;;;;;
2024/03/22 15:10:04;;;;;;;1.8;1;;;;;;;;;;;;;
2024/03/22 15:12:28;;;;;;;1.5;1;;;;;;;;;;;;;
2024/03/22 15:14:54;;;;;;;2.4;1.2;;;;;;;;;;;;;
2024/03/22 15:17:22;;;;;;;2.8;1.3;;;;;;;;;;;;;
2024/03/22 15:19:45;;;;;;;1.7;1.3;;;;;;;;;;;;;
2024/03/22 15:22:09;;;;;;;2.5;1.2;;;;;;;;;;;;;
2024/03/22 15:24:34;;;;;;;2.3;1.2;;;;;;;;;;;;;
2024/03/22 15:26:59;;;;;;;2.9;1.3;;;;;;;;;;;;;
2024/03/22 15:29:24;;;;;;;1.2;1.1;;;;;;;;;;;;;
2024/03/22 15:31:49;;;;;;;3.1;1.7;;;;;;;;;;;;;
2024/03/22 15:34:14;;;;;;;3.3;1.2;;;;;;;;;;;;;
2024/03/22 15:36:40;;;;;;;3.2;1.5;;;;;;;;;;;;;
2024/03/22 15:39:07;;;;;;;3;1.4;;;;;;;;;;;;;
2024/03/22 15:41:30;;;;;;;1.8;1.2;;;;;;;;;;;;;
2024/03/22 15:43:55;;;;;;;2.7;1.2;;;;;;;;;;;;;
2024/03/22 15:46:20;;;;;;;2;1.2;;;;;;;;;;;;;
2024/03/22 15:48:45;;;;;;;1.8;1.3;;;;;;;;;;;;;
2024/03/22 15:51:10;;;;;;;2;1.3;;;;;;;;;;;;;
2024/03/22 15:53:36;;;;;;;2.6;1.3;;;;;;;;;;;;;
2024/03/22 15:56:01;;;;;;;1.5;1;;;;;;;;;;;;;
2024/03/22 15:58:26;;;;;;;1.8;1;;;;;;;;;;;;;
2024/03/22 16:00:51;;;;;;;1.9;1;;;;;;;;;;;;;
2024/03/22 16:03:16;;;;;;;1.6;1;;;;;;;;;;;;;
2024/03/22 16:05:41;;;;;;;1.1;1;;;;;;;;;;;;;
2024/03/22 16:08:06;;;;;;;1.2;0.8;;;;;;;;;;;;;
2024/03/22 16:10:32;;;;;;;1.4;1;;;;;;;;;;;;;
2024/03/22 16:12:57;;;;;;;2.4;1.1;;;;;;;;;;;;;
2024/03/22 16:15:22;;;;;;;1.3;1;;;;;;;;;;;;;
2024/03/22 16:17:47;;;;;;;2.7;1.2;;;;;;;;;;;;;
2024/03/22 16:20:12;;;;;;;3.3;1.3;;;;;;;;;;;;;
2024/03/22 16:22:38;;;;;;;1.4;1.1;;;;;;;;;;;;;
2024/03/22 16:25:02;;;;;;;1.4;1.1;;;;;;;;;;;;;
2024/03/22 16:27:27;;;;;;;1.9;1.5;;;;;;;;;;;;;
2024/03/22 16:29:53;;;;;;;2.3;1.7;;;;;;;;;;;;;
2024/03/22 16:32:17;;;;;;;2.3;1.4;;;;;;;;;;;;;
2024/03/22 16:34:43;;;;;;;2.5;1.4;;;;;;;;;;;;;
2024/03/22 16:37:08;;;;;;;2.4;1.6;;;;;;;;;;;;;
2024/03/22 16:39:33;;;;;;;3;1.8;;;;;;;;;;;;;
2024/03/22 16:41:59;;;;;;;3.1;2.3;;;;;;;;;;;;;
2024/03/22 16:44:23;;;;;;;2.7;2;;;;;;;;;;;;;
2024/03/22 16:46:48;;;;;;;6.9;2.5;;;;;;;;;;;;;
2024/03/22 16:49:13;;;;;;;5.4;2.3;;;;;;;;;;;;;
2024/03/22 16:51:39;;;;;;;3.4;1.6;;;;;;;;;;;;;
2024/03/22 16:54:07;;;;;;;3.9;2.6;;;;;;;;;;;;;
2024/03/22 16:56:29;;;;;;;3.3;1.6;;;;;;;;;;;;;
2024/03/22 16:58:54;;;;;;;4.5;1.2;;;;;;;;;;;;;
2024/03/22 17:01:19;;;;;;;11.1;5.9;;;;;;;;;;;;;
2024/03/22 17:03:44;;;;;;;21.1;10.7;;;;;;;;;;;;;
2024/03/22 17:06:11;;;;;;;16.8;9.4;;;;;;;;;;;;;
2024/03/22 17:08:34;;;;;;;10.5;6.8;;;;;;;;;;;;;
2024/03/22 17:11:00;;;;;;;9.5;5.6;;;;;;;;;;;;;
2024/03/22 17:13:25;;;;;;;9.6;6;;;;;;;;;;;;;
2024/03/22 17:15:52;;;;;;;2.8;2;;;;;;;;;;;;;
2024/03/22 17:18:15;;;;;;;4;2.2;;;;;;;;;;;;;
2024/03/22 17:20:42;;;;;;;2.6;1.9;;;;;;;;;;;;;
2024/03/22 17:23:05;;;;;;;2.5;1.7;;;;;;;;;;;;;
2024/03/22 17:25:30;;;;;;;3.5;1.9;;;;;;;;;;;;;
2024/03/22 17:27:55;;;;;;;3.1;1.9;;;;;;;;;;;;;
2024/03/22 17:30:20;;;;;;;3.3;1.7;;;;;;;;;;;;;
2024/03/22 17:32:45;;;;;;;5.4;2.9;;;;;;;;;;;;;
2024/03/22 17:35:11;;;;;;;3.8;2.5;;;;;;;;;;;;;
2024/03/22 17:37:35;;;;;;;3.4;2;;;;;;;;;;;;;
2024/03/22 17:40:01;;;;;;;7.3;3.8;;;;;;;;;;;;;
2024/03/22 17:42:26;;;;;;;3.9;2.4;;;;;;;;;;;;;
2024/03/22 17:44:51;;;;;;;6;2.6;;;;;;;;;;;;;
2024/03/22 17:47:17;;;;;;;8.2;5.2;;;;;;;;;;;;;
2024/03/22 17:49:41;;;;;;;7.6;5.3;;;;;;;;;;;;;
2024/03/22 17:52:06;;;;;;;7.7;5.2;;;;;;;;;;;;;
2024/03/22 17:54:32;;;;;;;7.7;4.9;;;;;;;;;;;;;
2024/03/22 17:56:57;;;;;;;9.3;4.4;;;;;;;;;;;;;
2024/03/22 17:59:22;;;;;;;4.8;3.2;;;;;;;;;;;;;
2024/03/22 18:01:47;;;;;;;3.3;2;;;;;;;;;;;;;
2024/03/22 18:04:12;;;;;;;4;2.5;;;;;;;;;;;;;
2024/03/22 18:06:37;;;;;;;3.5;2.6;;;;;;;;;;;;;
2024/03/22 18:09:02;;;;;;;8.1;4.8;;;;;;;;;;;;;
2024/03/22 18:11:27;;;;;;;7.7;4.9;;;;;;;;;;;;;
2024/03/22 18:13:52;;;;;;;3.9;2.8;;;;;;;;;;;;;
2024/03/22 18:16:18;;;;;;;5.5;2.2;;;;;;;;;;;;;
2024/03/22 18:18:43;;;;;;;2.7;2;;;;;;;;;;;;;
2024/03/22 18:21:07;;;;;;;2.4;2.2;;;;;;;;;;;;;
2024/03/22 18:23:34;;;;;;;5.4;2.4;;;;;;;;;;;;;
2024/03/22 18:25:59;;;;;;;6.1;3.3;;;;;;;;;;;;;
2024/03/22 18:28:23;;;;;;;6.4;2.9;;;;;;;;;;;;;
2024/03/22 18:32:40;;;;;;;9.9;3.6;;;;;;;;;;;;;
2024/03/22 18:35:05;;;;;;;7.1;3.7;;;;;;;;;;;;;
2024/03/22 18:37:30;;;;;;;7.2;3.8;;;;;;;;;;;;;
2024/03/22 18:39:55;;;;;;;6.6;4.1;;;;;;;;;;;;;
2024/03/22 18:42:21;;;;;;;5.7;3.9;;;;;;;;;;;;;
2024/03/22 18:44:46;;;;;;;7.4;3.6;;;;;;;;;;;;;
2024/03/22 18:47:10;;;;;;;4.1;2.4;;;;;;;;;;;;;
2024/03/22 18:49:36;;;;;;;4;2.3;;;;;;;;;;;;;
2024/03/22 18:52:01;;;;;;;6.6;2.6;;;;;;;;;;;;;
2024/03/22 18:54:26;;;;;;;3.5;2.1;;;;;;;;;;;;;
2024/03/22 18:56:51;;;;;;;3.4;2.2;;;;;;;;;;;;;
2024/03/22 18:59:17;;;;;;;2.9;1.8;;;;;;;;;;;;;
2024/03/22 19:01:42;;;;;;;4.9;1.9;;;;;;;;;;;;;
2024/03/22 19:04:06;;;;;;;2.1;1.6;;;;;;;;;;;;;
2024/03/22 19:06:31;;;;;;;4.8;1.8;;;;;;;;;;;;;
2024/03/22 19:08:57;;;;;;;3.2;1.7;;;;;;;;;;;;;
2024/03/22 19:11:23;;;;;;;3.4;2.3;;;;;;;;;;;;;
2024/03/22 19:13:47;;;;;;;6.1;4;;;;;;;;;;;;;
2024/03/22 19:16:13;;;;;;;20.2;11.1;;;;;;;;;;;;;
2024/03/22 19:18:37;;;;;;;9.1;5.3;;;;;;;;;;;;;
2024/03/22 19:21:03;;;;;;;13.9;6.6;;;;;;;;;;;;;
2024/03/22 19:23:28;;;;;;;12.6;8.7;;;;;;;;;;;;;
2024/03/22 19:25:53;;;;;;;12.4;8.7;;;;;;;;;;;;;
2024/03/22 19:28:18;;;;;;;9.9;7;;;;;;;;;;;;;
2024/03/22 19:30:44;;;;;;;8.8;5;;;;;;;;;;;;;
2024/03/22 19:33:08;;;;;;;6.1;4;;;;;;;;;;;;;
2024/03/22 19:35:34;;;;;;;6.6;4.4;;;;;;;;;;;;;
2024/03/22 19:37:58;;;;;;;5.4;3.8;;;;;;;;;;;;;
2024/03/22 19:40:24;;;;;;;6.6;4;;;;;;;;;;;;;
2024/03/22 19:42:49;;;;;;;5.2;3.4;;;;;;;;;;;;;
2024/03/22 19:45:14;;;;;;;5.1;2.9;;;;;;;;;;;;;
2024/03/22 19:47:39;;;;;;;3.8;2.7;;;;;;;;;;;;;
2024/03/22 19:50:04;;;;;;;3.2;2.6;;;;;;;;;;;;;
2024/03/22 19:52:29;;;;;;;3.9;2.8;;;;;;;;;;;;;
2024/03/22 19:54:54;;;;;;;17.1;8.6;;;;;;;;;;;;;
2024/03/22 19:57:20;;;;;;;11.6;6;;;;;;;;;;;;;
2024/03/22 19:59:45;;;;;;;23.5;13.4;;;;;;;;;;;;;
2024/03/22 20:02:10;;;;;;;11.4;6.3;;;;;;;;;;;;;
2024/03/22 20:04:36;;;;;;;7.5;5.2;;;;;;;;;;;;;
2024/03/22 20:07:00;;;;;;;8.4;5.5;;;;;;;;;;;;;
2024/03/22 20:09:25;;;;;;;10.9;4.9;;;;;;;;;;;;;
2024/03/22 20:11:50;;;;;;;9.5;5;;;;;;;;;;;;;
2024/03/22 20:14:15;;;;;;;8.7;4.7;;;;;;;;;;;;;
2024/03/22 20:16:40;;;;;;;8.3;4.5;;;;;;;;;;;;;
2024/03/22 20:19:05;;;;;;;6;3.6;;;;;;;;;;;;;
2024/03/22 20:21:30;;;;;;;5.6;3.7;;;;;;;;;;;;;
2024/03/22 20:23:56;;;;;;;5.4;3.3;;;;;;;;;;;;;
2024/03/22 20:26:21;;;;;;;3.7;2.6;;;;;;;;;;;;;
2024/03/22 20:28:46;;;;;;;4;3.2;;;;;;;;;;;;;
2024/03/22 20:31:13;;;;;;;5.6;3.1;;;;;;;;;;;;;